Terminal Aerodrome Forecast
Issued by NWS

Home | Current Version | Previous Version | Text Only | Print | Product List | Glossary On
Versions: 1 2 3 4 5 6 7 8 9 10 11 12 13 14 15 16 17 18 19 20 21
344
FTUS45 KTFX 241120
TAFCTB
TAF
KCTB 241120Z 2412/2512 VRB06KT P6SM BKN070 BKN150
     FM241800 VRB06KT P6SM -SHRA SCT030 OVC050
     FM250300 04012KT P6SM SCT010 OVC030
     FM251000 VRB06KT 3SM -SN BR SCT005 OVC025=

USA.gov is the U.S. government's official web portal to all federal, state and local government web resources and services.